sensor_id;sensor_type;location;lat;lon;timestamp;pressure;altitude;pressure_sealevel;temperature;humidity
24013;BME280;12220;50.194;18.948;2022-09-17T00:01:18;100888.88;;;11.51;71.61
24013;BME280;12220;50.194;18.948;2022-09-17T00:03:21;100902.72;;;11.50;71.73
24013;BME280;12220;50.194;18.948;2022-09-17T00:05:26;100883.73;;;11.47;71.81
24013;BME280;12220;50.194;18.948;2022-09-17T00:07:28;100882.09;;;11.44;71.85
24013;BME280;12220;50.194;18.948;2022-09-17T00:09:29;100890.42;;;11.43;71.84
24013;BME280;12220;50.194;18.948;2022-09-17T00:11:38;100884.19;;;11.41;71.91
24013;BME280;12220;50.194;18.948;2022-09-17T00:13:42;100886.26;;;11.37;72.05
24013;BME280;12220;50.194;18.948;2022-09-17T00:15:45;100885.38;;;11.37;72.15
24013;BME280;12220;50.194;18.948;2022-09-17T00:17:47;100882.76;;;11.35;72.24
24013;BME280;12220;50.194;18.948;2022-09-17T00:19:51;100880.98;;;11.34;72.25
24013;BME280;12220;50.194;18.948;2022-09-17T00:21:52;100875.62;;;11.32;72.26
24013;BME280;12220;50.194;18.948;2022-09-17T00:23:55;100870.25;;;11.31;72.32
24013;BME280;12220;50.194;18.948;2022-09-17T00:25:57;100881.21;;;11.31;72.41
24013;BME280;12220;50.194;18.948;2022-09-17T00:28:06;100877.49;;;11.32;72.51
24013;BME280;12220;50.194;18.948;2022-09-17T00:30:09;100877.49;;;11.32;72.54
24013;BME280;12220;50.194;18.948;2022-09-17T00:32:10;100880.23;;;11.32;72.52
24013;BME280;12220;50.194;18.948;2022-09-17T00:34:12;100879.45;;;11.30;72.47
24013;BME280;12220;50.194;18.948;2022-09-17T00:36:21;100868.48;;;11.30;72.49
24013;BME280;12220;50.194;18.948;2022-09-17T00:38:23;100879.45;;;11.30;72.57
24013;BME280;12220;50.194;18.948;2022-09-17T00:40:24;100875.73;;;11.31;72.63
24013;BME280;12220;50.194;18.948;2022-09-17T00:42:25;100875.62;;;11.32;72.73
24013;BME280;12220;50.194;18.948;2022-09-17T00:44:40;100878.24;;;11.34;72.79
24013;BME280;12220;50.194;18.948;2022-09-17T00:46:43;100875.52;;;11.34;72.62
24013;BME280;12220;50.194;18.948;2022-09-17T00:48:47;100874.53;;;11.35;72.55
24013;BME280;12220;50.194;18.948;2022-09-17T00:50:49;100886.48;;;11.34;72.51
24013;BME280;12220;50.194;18.948;2022-09-17T00:53:15;100887.38;;;11.34;72.44
24013;BME280;12220;50.194;18.948;2022-09-17T00:57:34;100887.59;;;11.31;72.10
24013;BME280;12220;50.194;18.948;2022-09-17T00:59:36;100892.40;;;11.28;72.06
24013;BME280;12220;50.194;18.948;2022-09-17T01:01:37;100893.49;;;11.25;72.07
24013;BME280;12220;50.194;18.948;2022-09-17T01:03:38;100887.25;;;11.23;72.04
24013;BME280;12220;50.194;18.948;2022-09-17T01:06:19;100891.95;;;11.21;71.97
24013;BME280;12220;50.194;18.948;2022-09-17T01:08:24;100893.93;;;11.19;71.83
24013;BME280;12220;50.194;18.948;2022-09-17T01:10:42;100900.71;;;11.13;71.77
24013;BME280;12220;50.194;18.948;2022-09-17T01:17:52;100889.41;;;10.92;71.83
24013;BME280;12220;50.194;18.948;2022-09-17T01:22:28;100875.56;;;10.81;72.04
24013;BME280;12220;50.194;18.948;2022-09-17T01:24:47;100882.13;;;10.78;72.22
24013;BME280;12220;50.194;18.948;2022-09-17T01:35:58;100867.98;;;10.72;72.43
24013;BME280;12220;50.194;18.948;2022-09-17T01:38:10;100861.84;;;10.68;72.37
24013;BME280;12220;50.194;18.948;2022-09-17T01:42:45;100863.02;;;10.64;72.57
24013;BME280;12220;50.194;18.948;2022-09-17T01:45:04;100856.68;;;10.63;72.68
24013;BME280;12220;50.194;18.948;2022-09-17T01:47:22;100868.60;;;10.62;72.68
24013;BME280;12220;50.194;18.948;2022-09-17T01:49:24;100865.00;;;10.62;72.68
24013;BME280;12220;50.194;18.948;2022-09-17T01:51:29;100866.84;;;10.61;72.78
24013;BME280;12220;50.194;18.948;2022-09-17T01:53:52;100865.87;;;10.62;72.98
24013;BME280;12220;50.194;18.948;2022-09-17T01:55:52;100862.91;;;10.66;73.09
24013;BME280;12220;50.194;18.948;2022-09-17T01:58:01;100864.57;;;10.68;73.12
24013;BME280;12220;50.194;18.948;2022-09-17T02:00:15;100860.86;;;10.69;73.00
24013;BME280;12220;50.194;18.948;2022-09-17T02:02:29;100862.70;;;10.69;72.94
24013;BME280;12220;50.194;18.948;2022-09-17T02:04:37;100858.99;;;10.70;72.94
24013;BME280;12220;50.194;18.948;2022-09-17T02:06:46;100861.62;;;10.71;72.95
24013;BME280;12220;50.194;18.948;2022-09-17T02:08:57;100865.14;;;10.73;72.95
24013;BME280;12220;50.194;18.948;2022-09-17T02:11:10;100860.42;;;10.75;72.92
24013;BME280;12220;50.194;18.948;2022-09-17T02:14:14;100876.10;;;10.73;72.89
24013;BME280;12220;50.194;18.948;2022-09-17T02:15:48;100871.59;;;10.72;72.86
24013;BME280;12220;50.194;18.948;2022-09-17T02:17:55;100876.21;;;10.72;72.88
24013;BME280;12220;50.194;18.948;2022-09-17T02:20:02;100879.02;;;10.70;72.91
24013;BME280;12220;50.194;18.948;2022-09-17T02:24:23;100872.78;;;10.68;72.85
24013;BME280;12220;50.194;18.948;2022-09-17T02:26:26;100875.74;;;10.65;72.72
24013;BME280;12220;50.194;18.948;2022-09-17T02:30:43;100879.01;;;10.57;72.67
24013;BME280;12220;50.194;18.948;2022-09-17T02:32:44;100884.59;;;10.56;72.71
24013;BME280;12220;50.194;18.948;2022-09-17T02:34:50;100879.23;;;10.54;72.73
24013;BME280;12220;50.194;18.948;2022-09-17T02:36:53;100887.51;;;10.53;72.75
24013;BME280;12220;50.194;18.948;2022-09-17T02:38:59;100892.12;;;10.52;72.77
24013;BME280;12220;50.194;18.948;2022-09-17T02:43:33;100890.45;;;10.50;72.66
24013;BME280;12220;50.194;18.948;2022-09-17T02:57:19;100889.23;;;10.26;73.50
24013;BME280;12220;50.194;18.948;2022-09-17T03:04:17;100894.66;;;10.14;73.75
24013;BME280;12220;50.194;18.948;2022-09-17T03:06:20;100898.37;;;10.12;74.02
24013;BME280;12220;50.194;18.948;2022-09-17T03:08:31;100880.09;;;10.13;74.21
24013;BME280;12220;50.194;18.948;2022-09-17T03:10:34;100890.05;;;10.14;74.32
24013;BME280;12220;50.194;18.948;2022-09-17T03:12:35;100888.98;;;10.17;74.40
24013;BME280;12220;50.194;18.948;2022-09-17T03:14:37;100878.15;;;10.15;74.45
24013;BME280;12220;50.194;18.948;2022-09-17T03:16:38;100875.30;;;10.17;74.48
24013;BME280;12220;50.194;18.948;2022-09-17T03:18:40;100872.46;;;10.18;74.48
24013;BME280;12220;50.194;18.948;2022-09-17T03:20:45;100876.06;;;10.19;74.51
24013;BME280;12220;50.194;18.948;2022-09-17T03:22:46;100873.22;;;10.20;74.53
24013;BME280;12220;50.194;18.948;2022-09-17T03:24:48;100866.68;;;10.23;74.60
24013;BME280;12220;50.194;18.948;2022-09-17T03:26:49;100873.81;;;10.25;74.57
24013;BME280;12220;50.194;18.948;2022-09-17T03:29:00;100863.63;;;10.27;74.46
24013;BME280;12220;50.194;18.948;2022-09-17T03:31:01;100860.78;;;10.29;74.42
24013;BME280;12220;50.194;18.948;2022-09-17T03:33:03;100860.78;;;10.29;74.31
24013;BME280;12220;50.194;18.948;2022-09-17T03:35:05;100861.75;;;10.28;74.10
24013;BME280;12220;50.194;18.948;2022-09-17T03:37:16;100855.52;;;10.26;74.00
24013;BME280;12220;50.194;18.948;2022-09-17T03:39:17;100854.87;;;10.22;74.02
24013;BME280;12220;50.194;18.948;2022-09-17T03:41:18;100848.59;;;10.20;73.93
24013;BME280;12220;50.194;18.948;2022-09-17T03:43:20;100841.47;;;10.18;73.87
24013;BME280;12220;50.194;18.948;2022-09-17T03:45:31;100843.65;;;10.12;73.85
24013;BME280;12220;50.194;18.948;2022-09-17T03:47:32;100841.01;;;10.11;73.88
24013;BME280;12220;50.194;18.948;2022-09-17T03:49:33;100840.22;;;10.09;73.89
24013;BME280;12220;50.194;18.948;2022-09-17T03:51:34;100830.28;;;10.08;73.83
24013;BME280;12220;50.194;18.948;2022-09-17T03:53:45;100835.85;;;10.06;73.84
24013;BME280;12220;50.194;18.948;2022-09-17T03:55:46;100836.82;;;10.05;73.79
24013;BME280;12220;50.194;18.948;2022-09-17T03:57:47;100832.33;;;10.04;73.81
24013;BME280;12220;50.194;18.948;2022-09-17T03:59:50;100835.05;;;10.04;73.78
24013;BME280;12220;50.194;18.948;2022-09-17T04:02:00;100835.26;;;10.01;73.64
24013;BME280;12220;50.194;18.948;2022-09-17T04:04:02;100831.88;;;9.98;73.55
24013;BME280;12220;50.194;18.948;2022-09-17T04:06:04;100832.25;;;9.91;73.56
24013;BME280;12220;50.194;18.948;2022-09-17T04:08:05;100835.19;;;9.88;73.68
24013;BME280;12220;50.194;18.948;2022-09-17T04:10:15;100835.30;;;9.87;73.74
24013;BME280;12220;50.194;18.948;2022-09-17T04:12:17;100838.23;;;9.84;73.71
24013;BME280;12220;50.194;18.948;2022-09-17T04:14:18;100845.68;;;9.82;73.58
24013;BME280;12220;50.194;18.948;2022-09-17T04:16:19;100842.45;;;9.75;73.52
24013;BME280;12220;50.194;18.948;2022-09-17T04:18:30;100840.02;;;9.70;73.49
24013;BME280;12220;50.194;18.948;2022-09-17T04:20:31;100833.95;;;9.65;73.58
24013;BME280;12220;50.194;18.948;2022-09-17T04:22:33;100821.49;;;9.61;73.70
24013;BME280;12220;50.194;18.948;2022-09-17T04:24:34;100832.43;;;9.61;73.79
24013;BME280;12220;50.194;18.948;2022-09-17T04:26:45;100826.96;;;9.61;73.86
24013;BME280;12220;50.194;18.948;2022-09-17T04:28:46;100816.78;;;9.63;73.96
24013;BME280;12220;50.194;18.948;2022-09-17T04:30:48;100815.72;;;9.66;73.88
24013;BME280;12220;50.194;18.948;2022-09-17T04:32:49;100816.69;;;9.65;73.89
24013;BME280;12220;50.194;18.948;2022-09-17T04:35:00;100818.55;;;9.64;73.86
24013;BME280;12220;50.194;18.948;2022-09-17T04:37:01;100822.16;;;9.65;73.89
24013;BME280;12220;50.194;18.948;2022-09-17T04:39:02;100818.45;;;9.66;73.93
24013;BME280;12220;50.194;18.948;2022-09-17T04:41:06;100823.02;;;9.65;74.01
24013;BME280;12220;50.194;18.948;2022-09-17T04:43:15;100819.32;;;9.66;74.06
24013;BME280;12220;50.194;18.948;2022-09-17T04:45:16;100813.09;;;9.64;74.16
24013;BME280;12220;50.194;18.948;2022-09-17T04:47:18;100817.56;;;9.65;74.14
24013;BME280;12220;50.194;18.948;2022-09-17T04:49:20;100807.52;;;9.66;74.13
24013;BME280;12220;50.194;18.948;2022-09-17T04:51:30;100815.81;;;9.64;74.09
24013;BME280;12220;50.194;18.948;2022-09-17T04:53:31;100817.66;;;9.64;74.15
24013;BME280;12220;50.194;18.948;2022-09-17T04:55:32;100827.63;;;9.65;74.12
24013;BME280;12220;50.194;18.948;2022-09-17T04:57:34;100821.19;;;9.66;74.26
24013;BME280;12220;50.194;18.948;2022-09-17T04:59:45;100822.05;;;9.66;74.23
24013;BME280;12220;50.194;18.948;2022-09-17T05:01:46;100837.59;;;9.66;74.19
24013;BME280;12220;50.194;18.948;2022-09-17T05:03:49;100852.34;;;9.63;74.27
24013;BME280;12220;50.194;18.948;2022-09-17T05:05:50;100857.80;;;9.63;74.41
24013;BME280;12220;50.194;18.948;2022-09-17T05:08:00;100855.06;;;9.63;74.58
24013;BME280;12220;50.194;18.948;2022-09-17T05:10:01;100853.30;;;9.62;74.77
24013;BME280;12220;50.194;18.948;2022-09-17T05:12:03;100853.20;;;9.64;74.95
24013;BME280;12220;50.194;18.948;2022-09-17T05:14:04;100857.49;;;9.68;75.14
24013;BME280;12220;50.194;18.948;2022-09-17T05:16:15;100856.32;;;9.72;75.52
24013;BME280;12220;50.194;18.948;2022-09-17T05:18:16;100863.36;;;9.76;75.77
24013;BME280;12220;50.194;18.948;2022-09-17T05:20:18;100855.71;;;9.81;76.08
24013;BME280;12220;50.194;18.948;2022-09-17T05:22:20;100851.61;;;9.88;76.31
24013;BME280;12220;50.194;18.948;2022-09-17T05:24:30;100851.13;;;9.96;76.44
24013;BME280;12220;50.194;18.948;2022-09-17T05:26:31;100855.21;;;10.03;76.69
24013;BME280;12220;50.194;18.948;2022-09-17T05:28:32;100844.72;;;10.10;76.92
24013;BME280;12220;50.194;18.948;2022-09-17T05:30:34;100854.17;;;10.19;77.07
24013;BME280;12220;50.194;18.948;2022-09-17T05:32:45;100846.33;;;10.27;77.43
24013;BME280;12220;50.194;18.948;2022-09-17T05:34:46;100835.94;;;10.32;77.58
24013;BME280;12220;50.194;18.948;2022-09-17T05:36:48;100840.16;;;10.38;77.60
24013;BME280;12220;50.194;18.948;2022-09-17T05:38:49;100834.36;;;10.42;77.70
24013;BME280;12220;50.194;18.948;2022-09-17T05:41:03;100847.77;;;10.47;77.83
24013;BME280;12220;50.194;18.948;2022-09-17T05:43:06;100850.19;;;10.52;77.91
24013;BME280;12220;50.194;18.948;2022-09-17T05:45:08;100840.67;;;10.57;77.96
24013;BME280;12220;50.194;18.948;2022-09-17T05:47:10;100842.12;;;10.63;78.02
24013;BME280;12220;50.194;18.948;2022-09-17T05:49:15;100859.09;;;10.68;77.96
24013;BME280;12220;50.194;18.948;2022-09-17T05:51:16;100855.16;;;10.72;77.96
24013;BME280;12220;50.194;18.948;2022-09-17T05:53:18;100849.37;;;10.77;78.01
24013;BME280;12220;50.194;18.948;2022-09-17T05:55:21;100859.02;;;10.83;78.01
24013;BME280;12220;50.194;18.948;2022-09-17T05:57:33;100850.37;;;10.89;77.97
24013;BME280;12220;50.194;18.948;2022-09-17T05:59:34;100859.15;;;10.94;77.96
24013;BME280;12220;50.194;18.948;2022-09-17T06:01:36;100854.22;;;10.99;77.93
24013;BME280;12220;50.194;18.948;2022-09-17T06:03:37;100851.04;;;11.05;77.92
24013;BME280;12220;50.194;18.948;2022-09-17T06:05:55;100840.64;;;11.10;77.93
24013;BME280;12220;50.194;18.948;2022-09-17T06:08:07;100845.68;;;11.16;77.90
24013;BME280;12220;50.194;18.948;2022-09-17T06:10:09;100848.99;;;11.22;77.82
24013;BME280;12220;50.194;18.948;2022-09-17T06:12:10;100848.54;;;11.28;77.76
24013;BME280;12220;50.194;18.948;2022-09-17T06:14:12;100840.88;;;11.33;77.70
24013;BME280;12220;50.194;18.948;2022-09-17T06:16:22;100824.84;;;11.40;77.59
24013;BME280;12220;50.194;18.948;2022-09-17T06:18:24;100824.39;;;11.46;77.50
24013;BME280;12220;50.194;18.948;2022-09-17T06:20:25;100816.61;;;11.53;77.44
24013;BME280;12220;50.194;18.948;2022-09-17T06:22:26;100822.64;;;11.58;77.34
24013;BME280;12220;50.194;18.948;2022-09-17T06:24:36;100835.91;;;11.64;77.26
24013;BME280;12220;50.194;18.948;2022-09-17T06:26:37;100824.70;;;11.67;77.17
24013;BME280;12220;50.194;18.948;2022-09-17T06:28:39;100827.97;;;11.72;77.10
24013;BME280;12220;50.194;18.948;2022-09-17T06:30:40;100838.63;;;11.77;77.02
24013;BME280;12220;50.194;18.948;2022-09-17T06:32:51;100841.89;;;11.82;76.89
24013;BME280;12220;50.194;18.948;2022-09-17T06:34:52;100624.26;;;10.59;76.65
24013;BME280;12220;50.194;18.948;2022-09-17T06:36:55;100823.35;;;11.85;76.66
24013;BME280;12220;50.194;18.948;2022-09-17T06:38:56;100835.94;;;11.88;76.48
24013;BME280;12220;50.194;18.948;2022-09-17T06:41:06;100840.33;;;11.91;76.49
24013;BME280;12220;50.194;18.948;2022-09-17T06:43:07;100847.50;;;11.93;76.64
24013;BME280;12220;50.194;18.948;2022-09-17T06:45:09;100843.66;;;11.96;76.48
24013;BME280;12220;50.194;18.948;2022-09-17T06:47:10;100839.70;;;12.00;76.42
24013;BME280;12220;50.194;18.948;2022-09-17T06:49:21;100849.55;;;12.02;76.37
24013;BME280;12220;50.194;18.948;2022-09-17T06:51:22;100854.81;;;12.06;76.34
24013;BME280;12220;50.194;18.948;2022-09-17T06:53:24;100854.60;;;12.09;76.29
24013;BME280;12220;50.194;18.948;2022-09-17T06:55:25;100847.87;;;12.13;76.24
24013;BME280;12220;50.194;18.948;2022-09-17T06:57:36;100846.77;;;12.15;76.08
24013;BME280;12220;50.194;18.948;2022-09-17T06:59:38;100845.78;;;12.16;75.99
24013;BME280;12220;50.194;18.948;2022-09-17T07:01:39;100862.02;;;12.19;75.96
24013;BME280;12220;50.194;18.948;2022-09-17T07:03:41;100859.04;;;12.23;75.83
24013;BME280;12220;50.194;18.948;2022-09-17T07:05:51;100858.80;;;12.26;75.73
24013;BME280;12220;50.194;18.948;2022-09-17T07:07:52;100865.08;;;12.28;75.68
24013;BME280;12220;50.194;18.948;2022-09-17T07:09:56;100861.09;;;12.32;75.55
24013;BME280;12220;50.194;18.948;2022-09-17T07:11:57;100858.13;;;12.35;75.55
24013;BME280;12220;50.194;18.948;2022-09-17T07:14:05;100856.88;;;12.39;75.55
24013;BME280;12220;50.194;18.948;2022-09-17T07:16:08;100849.30;;;12.43;75.52
24013;BME280;12220;50.194;18.948;2022-09-17T07:18:10;100858.05;;;12.48;75.47
24013;BME280;12220;50.194;18.948;2022-09-17T07:20:13;100866.09;;;12.51;75.32
24013;BME280;12220;50.194;18.948;2022-09-17T07:22:23;100873.96;;;12.55;75.25
24013;BME280;12220;50.194;18.948;2022-09-17T07:24:25;100872.83;;;12.58;74.91
24013;BME280;12220;50.194;18.948;2022-09-17T07:26:26;100868.97;;;12.61;74.85
24013;BME280;12220;50.194;18.948;2022-09-17T07:28:28;100879.60;;;12.65;74.47
24013;BME280;12220;50.194;18.948;2022-09-17T07:30:35;100868.53;;;12.67;74.05
24013;BME280;12220;50.194;18.948;2022-09-17T07:32:36;100873.90;;;12.68;74.14
24013;BME280;12220;50.194;18.948;2022-09-17T07:34:38;100878.02;;;12.74;74.13
24013;BME280;12220;50.194;18.948;2022-09-17T07:36:39;100877.80;;;12.77;73.97
24013;BME280;12220;50.194;18.948;2022-09-17T07:38:50;100875.45;;;12.84;74.00
24013;BME280;12220;50.194;18.948;2022-09-17T07:40:58;100887.84;;;12.89;73.94
24013;BME280;12220;50.194;18.948;2022-09-17T07:43:00;100894.60;;;12.97;73.92
24013;BME280;12220;50.194;18.948;2022-09-17T07:45:01;100886.90;;;13.02;73.63
24013;BME280;12220;50.194;18.948;2022-09-17T07:47:05;100891.00;;;13.07;73.07
24013;BME280;12220;50.194;18.948;2022-09-17T07:49:07;100895.27;;;13.12;72.66
24013;BME280;12220;50.194;18.948;2022-09-17T07:53:22;100883.45;;;13.22;72.31
24013;BME280;12220;50.194;18.948;2022-09-17T07:55:24;100883.95;;;13.28;71.90
24013;BME280;12220;50.194;18.948;2022-09-17T07:57:26;100874.46;;;13.32;71.46
24013;BME280;12220;50.194;18.948;2022-09-17T07:59:28;100861.39;;;13.35;71.49
24013;BME280;12220;50.194;18.948;2022-09-17T08:01:31;100863.77;;;13.40;71.45
24013;BME280;12220;50.194;18.948;2022-09-17T08:03:36;100867.78;;;13.47;71.46
24013;BME280;12220;50.194;18.948;2022-09-17T08:05:41;100877.41;;;13.53;71.45
24013;BME280;12220;50.194;18.948;2022-09-17T08:07:43;100876.02;;;13.58;71.34
24013;BME280;12220;50.194;18.948;2022-09-17T08:09:44;100872.02;;;13.63;70.48
24013;BME280;12220;50.194;18.948;2022-09-17T08:11:50;100880.02;;;13.66;70.42
24013;BME280;12220;50.194;18.948;2022-09-17T08:13:52;100880.91;;;13.66;69.84
24013;BME280;12220;50.194;18.948;2022-09-17T08:15:58;100866.91;;;13.69;69.97
24013;BME280;12220;50.194;18.948;2022-09-17T08:17:59;100873.03;;;13.73;70.01
24013;BME280;12220;50.194;18.948;2022-09-17T08:20:05;100869.80;;;13.79;69.55
24013;BME280;12220;50.194;18.948;2022-09-17T08:22:07;100863.14;;;13.82;69.38
24013;BME280;12220;50.194;18.948;2022-09-17T08:24:08;100856.13;;;13.89;69.41
24013;BME280;12220;50.194;18.948;2022-09-17T08:26:16;100851.13;;;13.94;69.50
24013;BME280;12220;50.194;18.948;2022-09-17T08:28:20;100856.99;;;14.01;69.50
24013;BME280;12220;50.194;18.948;2022-09-17T08:30:22;100862.99;;;14.06;69.33
24013;BME280;12220;50.194;18.948;2022-09-17T08:32:24;100862.61;;;14.10;69.03
24013;BME280;12220;50.194;18.948;2022-09-17T08:34:27;100863.12;;;14.16;68.39
24013;BME280;12220;50.194;18.948;2022-09-17T08:36:36;100876.50;;;14.20;68.52
24013;BME280;12220;50.194;18.948;2022-09-17T08:38:39;100875.25;;;14.24;68.35
24013;BME280;12220;50.194;18.948;2022-09-17T08:43:00;100873.73;;;14.32;67.70
24013;BME280;12220;50.194;18.948;2022-09-17T08:45:09;100875.19;;;14.36;67.36
24013;BME280;12220;50.194;18.948;2022-09-17T08:47:27;100865.80;;;14.38;66.93
24013;BME280;12220;50.194;18.948;2022-09-17T08:49:35;100849.01;;;14.41;66.88
24013;BME280;12220;50.194;18.948;2022-09-17T08:54:04;100837.63;;;14.46;65.65
24013;BME280;12220;50.194;18.948;2022-09-17T08:56:17;100834.47;;;14.51;64.32
24013;BME280;12220;50.194;18.948;2022-09-17T09:00:44;100838.82;;;14.53;63.72
24013;BME280;12220;50.194;18.948;2022-09-17T09:05:15;100848.45;;;14.59;64.15
24013;BME280;12220;50.194;18.948;2022-09-17T09:07:33;100847.35;;;14.61;64.24
24013;BME280;12220;50.194;18.948;2022-09-17T09:09:48;100852.73;;;14.63;64.00
24013;BME280;12220;50.194;18.948;2022-09-17T09:11:59;100857.24;;;14.64;63.79
24013;BME280;12220;50.194;18.948;2022-09-17T09:16:18;100862.99;;;14.61;63.79
24013;BME280;12220;50.194;18.948;2022-09-17T09:18:24;100866.64;;;14.61;63.65
24013;BME280;12220;50.194;18.948;2022-09-17T09:22:47;100609.74;;;13.07;63.42
24013;BME280;12220;50.194;18.948;2022-09-17T09:27:15;100890.68;;;14.59;63.67
24013;BME280;12220;50.194;18.948;2022-09-17T09:31:46;100886.03;;;14.60;63.91
24013;BME280;12220;50.194;18.948;2022-09-17T09:33:51;100885.03;;;14.61;64.11
24013;BME280;12220;50.194;18.948;2022-09-17T09:35:52;100894.20;;;14.61;63.92
24013;BME280;12220;50.194;18.948;2022-09-17T09:38:03;100879.53;;;14.61;63.71
24013;BME280;12220;50.194;18.948;2022-09-17T09:40:18;100877.41;;;14.64;63.74
24013;BME280;12220;50.194;18.948;2022-09-17T09:42:31;100880.93;;;14.67;63.83
24013;BME280;12220;50.194;18.948;2022-09-17T09:44:33;100886.17;;;14.70;63.89
24013;BME280;12220;50.194;18.948;2022-09-17T09:51:11;100878.90;;;14.69;62.91
24013;BME280;12220;50.194;18.948;2022-09-17T09:57:45;100887.66;;;14.74;63.30
24013;BME280;12220;50.194;18.948;2022-09-17T10:02:17;100880.85;;;14.78;63.44
24013;BME280;12220;50.194;18.948;2022-09-17T10:04:21;100887.26;;;14.78;63.75
24013;BME280;12220;50.194;18.948;2022-09-17T10:06:23;100892.65;;;14.80;63.58
24013;BME280;12220;50.194;18.948;2022-09-17T10:08:26;100899.92;;;14.81;63.65
24013;BME280;12220;50.194;18.948;2022-09-17T10:10:32;100888.88;;;14.81;63.69
24013;BME280;12220;50.194;18.948;2022-09-17T10:12:33;100890.88;;;14.79;63.71
24013;BME280;12220;50.194;18.948;2022-09-17T10:14:36;100888.13;;;14.79;63.74
24013;BME280;12220;50.194;18.948;2022-09-17T10:16:38;100895.52;;;14.78;63.81
24013;BME280;12220;50.194;18.948;2022-09-17T10:18:48;100899.15;;;14.79;63.93
24013;BME280;12220;50.194;18.948;2022-09-17T10:20:58;100902.66;;;14.81;63.95
24013;BME280;12220;50.194;18.948;2022-09-17T10:23:05;100886.13;;;14.81;63.83
24013;BME280;12220;50.194;18.948;2022-09-17T10:27:20;100906.43;;;14.80;63.91
24013;BME280;12220;50.194;18.948;2022-09-17T10:29:27;100899.92;;;14.81;63.97
24013;BME280;12220;50.194;18.948;2022-09-17T10:33:50;100900.52;;;14.85;64.20
24013;BME280;12220;50.194;18.948;2022-09-17T10:36:00;100894.60;;;14.89;64.01
24013;BME280;12220;50.194;18.948;2022-09-17T10:38:02;100881.70;;;14.90;64.11
24013;BME280;12220;50.194;18.948;2022-09-17T10:42:28;100883.52;;;15.01;64.09
24013;BME280;12220;50.194;18.948;2022-09-17T10:44:34;100882.13;;;15.06;63.77
24013;BME280;12220;50.194;18.948;2022-09-17T10:46:37;100895.24;;;15.14;63.70
24013;BME280;12220;50.194;18.948;2022-09-17T10:48:44;100901.95;;;15.21;63.58
24013;BME280;12220;50.194;18.948;2022-09-17T10:50:51;100903.31;;;15.27;63.13
24013;BME280;12220;50.194;18.948;2022-09-17T10:53:01;100901.04;;;15.32;63.15
24013;BME280;12220;50.194;18.948;2022-09-17T10:55:17;100900.49;;;15.38;63.32
24013;BME280;12220;50.194;18.948;2022-09-17T10:59:46;100899.22;;;15.42;62.50
24013;BME280;12220;50.194;18.948;2022-09-17T11:01:59;100894.43;;;15.44;62.66
24013;BME280;12220;50.194;18.948;2022-09-17T11:04:13;100899.80;;;15.46;62.81
24013;BME280;12220;50.194;18.948;2022-09-17T11:08:44;100902.57;;;15.46;62.24
24013;BME280;12220;50.194;18.948;2022-09-17T11:13:29;100899.15;;;15.32;62.83
24013;BME280;12220;50.194;18.948;2022-09-17T11:34:35;100909.37;;;15.21;64.46
24013;BME280;12220;50.194;18.948;2022-09-17T11:36:45;100918.79;;;15.18;64.43
24013;BME280;12220;50.194;18.948;2022-09-17T11:38:50;100924.70;;;15.13;64.51
24013;BME280;12220;50.194;18.948;2022-09-17T11:45:32;100909.16;;;15.12;64.48
24013;BME280;12220;50.194;18.948;2022-09-17T11:47:43;100914.80;;;15.11;64.54
24013;BME280;12220;50.194;18.948;2022-09-17T11:50:03;100913.05;;;15.10;64.64
24013;BME280;12220;50.194;18.948;2022-09-17T11:52:09;100901.15;;;15.09;64.67
24013;BME280;12220;50.194;18.948;2022-09-17T11:54:19;100906.80;;;15.08;64.63
24013;BME280;12220;50.194;18.948;2022-09-17T11:58:47;100898.04;;;15.03;64.25
24013;BME280;12220;50.194;18.948;2022-09-17T12:00:53;100898.30;;;14.99;64.23
24013;BME280;12220;50.194;18.948;2022-09-17T12:03:17;100890.16;;;14.98;64.15
24013;BME280;12220;50.194;18.948;2022-09-17T12:05:23;100885.69;;;14.97;64.26
24013;BME280;12220;50.194;18.948;2022-09-17T12:09:40;100889.30;;;14.97;64.10
24013;BME280;12220;50.194;18.948;2022-09-17T12:14:05;100883.43;;;14.91;64.01
24013;BME280;12220;50.194;18.948;2022-09-17T12:16:14;100889.21;;;14.88;64.20
24013;BME280;12220;50.194;18.948;2022-09-17T12:18:33;100875.84;;;14.83;64.69
24013;BME280;12220;50.194;18.948;2022-09-17T12:20:36;100874.20;;;14.80;64.62
24013;BME280;12220;50.194;18.948;2022-09-17T12:22:42;100860.70;;;14.77;65.05
24013;BME280;12220;50.194;18.948;2022-09-17T12:24:51;100865.61;;;14.74;65.39
24013;BME280;12220;50.194;18.948;2022-09-17T12:29:22;100851.60;;;14.66;66.13
24013;BME280;12220;50.194;18.948;2022-09-17T12:31:31;100848.84;;;14.66;66.37
24013;BME280;12220;50.194;18.948;2022-09-17T12:38:18;100856.27;;;14.86;67.60
24013;BME280;12220;50.194;18.948;2022-09-17T12:49:52;100834.28;;;15.17;67.67
24013;BME280;12220;50.194;18.948;2022-09-17T12:52:10;100825.86;;;15.19;67.22
24013;BME280;12220;50.194;18.948;2022-09-17T12:56:56;100832.55;;;15.16;67.02
24013;BME280;12220;50.194;18.948;2022-09-17T12:59:11;100835.90;;;15.20;67.22
24013;BME280;12220;50.194;18.948;2022-09-17T13:03:39;100832.66;;;15.36;67.33
24013;BME280;12220;50.194;18.948;2022-09-17T13:12:30;100821.53;;;15.47;65.44
24013;BME280;12220;50.194;18.948;2022-09-17T13:21:53;100094.04;;;11.26;65.43
24013;BME280;12220;50.194;18.948;2022-09-17T13:26:36;100817.66;;;15.59;65.77
24013;BME280;12220;50.194;18.948;2022-09-17T13:28:48;100810.86;;;15.63;65.60